createdAt,value
2019-05-22T00:01:25.270Z,10.77
2019-05-22T00:04:06.793Z,10.90
2019-05-22T00:06:41.571Z,11.30
2019-05-22T00:09:19.577Z,11.73
2019-05-22T00:11:51.990Z,11.67
2019-05-22T00:14:22.073Z,11.40
2019-05-22T00:16:51.537Z,12.17
2019-05-22T00:19:22.628Z,11.93
2019-05-22T00:21:57.242Z,11.30
2019-05-22T00:24:27.202Z,12.87
2019-05-22T00:26:58.270Z,12.57
2019-05-22T00:29:28.243Z,13.00
2019-05-22T00:31:58.068Z,13.13
2019-05-22T00:34:27.914Z,13.73
2019-05-22T00:36:57.562Z,13.97
2019-05-22T00:39:28.664Z,13.00
2019-05-22T00:41:58.342Z,14.97
2019-05-22T00:44:29.181Z,14.57
2019-05-22T00:47:01.129Z,15.70
2019-05-22T00:49:32.806Z,15.83
2019-05-22T00:52:06.490Z,13.53
2019-05-22T00:54:55.281Z,14.80
2019-05-22T00:57:45.549Z,13.70
2019-05-22T01:00:27.923Z,13.73
2019-05-22T01:02:57.544Z,11.57
2019-05-22T01:05:30.070Z,13.20
2019-05-22T01:08:00.957Z,13.07
2019-05-22T01:10:31.227Z,13.60
2019-05-22T01:13:00.867Z,15.00
2019-05-22T01:15:32.089Z,15.67
2019-05-22T01:18:07.342Z,15.17
2019-05-22T01:20:38.278Z,17.07
2019-05-22T01:23:09.327Z,15.53
2019-05-22T01:25:40.392Z,16.87
2019-05-22T01:28:13.065Z,16.63
2019-05-22T01:31:07.049Z,17.43
2019-05-22T01:33:44.794Z,15.17
2019-05-22T01:36:26.135Z,14.33
2019-05-22T01:39:00.897Z,15.53
2019-05-22T01:41:33.041Z,16.97
2019-05-22T01:44:06.134Z,16.57
2019-05-22T01:46:37.198Z,15.87
2019-05-22T01:49:10.397Z,15.93
2019-05-22T01:51:40.040Z,16.60
2019-05-22T01:54:11.276Z,17.23
2019-05-22T01:56:41.908Z,14.93
2019-05-22T01:59:12.469Z,14.87
2019-05-22T02:01:41.994Z,14.90
2019-05-22T02:04:14.986Z,14.07
2019-05-22T02:06:44.577Z,15.37
2019-05-22T02:09:33.823Z,14.57
2019-05-22T02:12:18.152Z,14.87
2019-05-22T02:14:50.393Z,15.43
2019-05-22T02:17:23.861Z,15.43
2019-05-22T02:19:53.373Z,14.40
2019-05-22T02:22:23.538Z,16.40
2019-05-22T02:24:53.313Z,16.27
2019-05-22T02:27:24.086Z,17.07
2019-05-22T02:29:55.309Z,15.27
2019-05-22T02:32:25.694Z,17.07
2019-05-22T02:34:55.517Z,16.73
2019-05-22T02:37:25.198Z,16.07
2019-05-22T02:39:55.661Z,16.93
2019-05-22T02:42:30.989Z,17.90
2019-05-22T02:45:01.548Z,17.40
2019-05-22T02:47:32.091Z,17.83
2019-05-22T02:50:02.284Z,18.37
2019-05-22T02:52:31.600Z,19.87
2019-05-22T02:55:02.151Z,17.20
2019-05-22T02:57:31.668Z,16.43
2019-05-22T03:00:01.767Z,16.50
2019-05-22T03:02:33.843Z,14.80
2019-05-22T03:05:07.216Z,13.83
2019-05-22T03:07:38.083Z,12.60
2019-05-22T03:10:10.678Z,14.33
2019-05-22T03:12:40.954Z,15.50
2019-05-22T03:15:12.966Z,15.57
2019-05-22T03:17:45.549Z,16.83
2019-05-22T03:20:19.398Z,15.20
2019-05-22T03:23:12.251Z,14.70
2019-05-22T03:25:43.530Z,16.30
2019-05-22T03:28:13.909Z,19.47
2019-05-22T03:30:43.880Z,21.47
2019-05-22T03:33:13.344Z,18.87
2019-05-22T03:35:45.900Z,15.90
2019-05-22T03:38:17.639Z,16.40
2019-05-22T03:40:47.989Z,15.73
2019-05-22T03:43:20.959Z,16.13
2019-05-22T03:45:51.943Z,18.23
2019-05-22T03:48:23.638Z,16.70
2019-05-22T03:50:56.209Z,14.10
2019-05-22T03:53:25.942Z,14.40
2019-05-22T03:55:57.283Z,13.80
2019-05-22T03:58:26.839Z,12.13
2019-05-22T04:00:58.905Z,13.03
2019-05-22T04:03:29.056Z,12.60
2019-05-22T04:06:00.194Z,13.57
2019-05-22T04:08:31.054Z,16.90
2019-05-22T04:11:03.450Z,16.43
2019-05-22T04:13:34.358Z,16.30
2019-05-22T04:16:06.671Z,17.30
2019-05-22T04:18:37.504Z,16.40
2019-05-22T04:21:06.766Z,17.47
2019-05-22T04:23:37.734Z,17.90
2019-05-22T04:26:11.759Z,18.63
2019-05-22T04:28:49.110Z,18.30
2019-05-22T04:31:19.566Z,19.77
2019-05-22T04:33:49.222Z,18.90
2019-05-22T04:36:19.968Z,18.77
2019-05-22T04:38:49.839Z,17.57
2019-05-22T04:41:19.603Z,21.63
2019-05-22T04:43:49.563Z,16.70
2019-05-22T04:46:19.129Z,15.10
2019-05-22T04:48:48.740Z,14.27
2019-05-22T04:51:27.107Z,12.77
2019-05-22T04:53:57.053Z,11.77
2019-05-22T04:56:27.665Z,10.57
2019-05-22T04:58:58.185Z,9.57
2019-05-22T05:01:27.554Z,10.83
2019-05-22T05:03:57.439Z,9.90
2019-05-22T05:06:29.031Z,11.30
2019-05-22T05:08:58.590Z,11.47
2019-05-22T05:11:27.900Z,10.20
2019-05-22T05:13:57.461Z,7.93
2019-05-22T05:16:26.726Z,9.50
2019-05-22T05:18:56.491Z,8.93
2019-05-22T05:21:25.972Z,8.03
2019-05-22T05:23:56.029Z,7.50
2019-05-22T05:26:26.797Z,6.83
2019-05-22T05:28:59.754Z,6.10
2019-05-22T05:31:29.989Z,6.87
2019-05-22T05:34:13.741Z,7.63
2019-05-22T05:36:44.934Z,9.20
2019-05-22T05:39:58.163Z,9.07
2019-05-22T05:42:27.635Z,8.73
2019-05-22T05:44:56.893Z,8.37
2019-05-22T05:47:26.666Z,9.40
2019-05-22T05:49:57.802Z,9.77
2019-05-22T05:52:29.242Z,9.00
2019-05-22T05:55:00.134Z,7.00
2019-05-22T05:58:15.327Z,6.50
2019-05-22T06:00:51.985Z,5.30
2019-05-22T06:03:33.703Z,4.17
2019-05-22T06:06:51.849Z,5.23
2019-05-22T06:09:21.367Z,5.50
2019-05-22T06:11:55.924Z,5.77
2019-05-22T06:14:27.290Z,5.93
2019-05-22T06:17:43.987Z,6.00
2019-05-22T06:20:17.022Z,6.03
2019-05-22T06:23:20.732Z,4.13
2019-05-22T06:25:51.455Z,3.53
2019-05-22T06:28:20.721Z,3.90
2019-05-22T06:30:50.765Z,3.67
2019-05-22T06:33:31.113Z,3.50
2019-05-22T06:36:02.582Z,2.90
2019-05-22T06:39:11.838Z,3.30
2019-05-22T06:41:42.820Z,2.80
2019-05-22T06:44:43.312Z,3.10
2019-05-22T06:47:17.702Z,3.30
2019-05-22T06:49:49.080Z,3.23
2019-05-22T06:52:18.503Z,3.30
2019-05-22T06:54:48.718Z,3.40
2019-05-22T06:57:37.083Z,3.20
2019-05-22T07:00:24.857Z,3.90
2019-05-22T07:02:54.166Z,3.60
2019-05-22T07:05:24.516Z,3.37
2019-05-22T07:07:54.005Z,3.00
2019-05-22T07:10:23.843Z,3.10
2019-05-22T07:12:53.337Z,3.13
2019-05-22T07:15:30.881Z,3.57
2019-05-22T07:18:03.260Z,3.40
2019-05-22T07:20:35.701Z,3.13
2019-05-22T07:23:08.650Z,3.23
2019-05-22T07:25:40.162Z,3.53
2019-05-22T07:28:10.461Z,3.07
2019-05-22T07:30:40.541Z,3.67
2019-05-22T07:33:10.521Z,3.27
2019-05-22T07:36:04.836Z,3.50
2019-05-22T07:38:11.865Z,3.50
2019-05-22T07:40:41.466Z,3.70
2019-05-22T07:43:10.930Z,3.77
2019-05-22T07:45:40.909Z,3.87
2019-05-22T07:48:11.098Z,3.30
2019-05-22T07:50:48.674Z,3.10
2019-05-22T07:53:18.668Z,2.90
2019-05-22T07:55:51.014Z,2.97
2019-05-22T07:58:21.017Z,2.90
2019-05-22T08:00:56.579Z,2.80
2019-05-22T08:03:27.537Z,2.63
2019-05-22T08:05:57.881Z,2.80
2019-05-22T08:08:29.705Z,2.70
2019-05-22T08:10:59.819Z,2.50
2019-05-22T08:13:30.391Z,2.73
2019-05-22T08:15:59.866Z,2.60
2019-05-22T08:18:32.589Z,2.30
2019-05-22T08:21:02.196Z,2.73
2019-05-22T08:23:31.986Z,2.50
2019-05-22T08:26:01.458Z,2.50
2019-05-22T08:28:33.214Z,2.30
2019-05-22T08:31:04.138Z,2.10
2019-05-22T08:33:37.401Z,2.05
2019-05-22T08:36:07.036Z,2.40
2019-05-22T08:38:37.210Z,1.85
2019-05-22T08:41:09.782Z,2.12
2019-05-22T08:44:11.291Z,2.00
2019-05-22T08:46:12.932Z,2.10
2019-05-22T08:48:48.203Z,2.25
2019-05-22T08:51:14.990Z,2.00
2019-05-22T08:53:47.926Z,2.27
2019-05-22T08:56:16.443Z,2.10
2019-05-22T08:58:47.558Z,2.10
2019-05-22T09:01:17.033Z,2.20
2019-05-22T09:03:46.556Z,2.07
2019-05-22T09:06:16.258Z,1.93
2019-05-22T09:08:46.086Z,2.83
2019-05-22T09:11:15.756Z,2.67
2019-05-22T09:13:45.076Z,2.40
2019-05-22T09:16:16.716Z,2.40
2019-05-22T09:18:46.175Z,2.43
2019-05-22T09:21:16.584Z,2.17
2019-05-22T09:23:47.291Z,2.50
2019-05-22T09:26:17.218Z,2.47
2019-05-22T09:28:46.593Z,1.97
2019-05-22T09:31:16.246Z,1.77
2019-05-22T09:33:45.614Z,1.80
2019-05-22T09:36:14.897Z,1.63
2019-05-22T09:38:44.619Z,2.10
2019-05-22T09:41:13.918Z,2.17
2019-05-22T09:43:43.418Z,1.90
2019-05-22T09:46:13.759Z,2.00
2019-05-22T09:48:43.738Z,1.90
2019-05-22T09:51:13.069Z,1.80
2019-05-22T09:53:42.619Z,1.80
2019-05-22T09:56:12.145Z,1.90
2019-05-22T09:58:41.631Z,1.70
2019-05-22T10:01:12.090Z,1.90
2019-05-22T10:03:41.713Z,1.63
2019-05-22T10:06:11.566Z,1.83
2019-05-22T10:08:41.173Z,1.80
2019-05-22T10:11:10.515Z,1.90
2019-05-22T10:13:40.394Z,2.03
2019-05-22T10:16:09.655Z,2.13
2019-05-22T10:18:38.985Z,1.80
2019-05-22T10:21:09.005Z,2.50
2019-05-22T10:23:39.149Z,1.80
2019-05-22T10:26:09.365Z,2.10
2019-05-22T10:28:39.058Z,2.40
2019-05-22T10:31:09.487Z,2.00
2019-05-22T10:33:39.944Z,2.10
2019-05-22T10:36:09.531Z,2.17
2019-05-22T10:38:38.873Z,2.03
2019-05-22T10:41:08.327Z,1.90
2019-05-22T10:43:37.767Z,1.90
2019-05-22T10:46:08.213Z,2.10
2019-05-22T10:48:40.088Z,2.23
2019-05-22T10:51:09.116Z,2.20
2019-05-22T10:53:39.724Z,1.90
2019-05-22T10:56:10.257Z,2.10
2019-05-22T10:58:39.697Z,2.07
2019-05-22T11:01:09.988Z,2.43
2019-05-22T11:03:39.707Z,2.10
2019-05-22T11:06:09.372Z,1.90
2019-05-22T11:08:40.347Z,2.07
2019-05-22T11:11:10.383Z,2.30
2019-05-22T11:13:40.542Z,3.07
2019-05-22T11:16:10.320Z,3.50
2019-05-22T11:18:40.557Z,3.80
2019-05-22T11:21:10.529Z,3.60
2019-05-22T11:23:51.338Z,2.60
2019-05-22T11:26:11.752Z,2.90
2019-05-22T11:28:41.283Z,2.70
2019-05-22T11:31:10.849Z,2.20
2019-05-22T11:33:41.381Z,2.90
2019-05-22T11:36:11.622Z,4.30
2019-05-22T11:38:40.997Z,4.30
2019-05-22T11:41:11.325Z,3.97
2019-05-22T11:43:43.840Z,5.10
2019-05-22T11:46:13.549Z,5.67
2019-05-22T11:48:43.238Z,3.73
2019-05-22T11:51:12.842Z,3.57
2019-05-22T11:53:42.215Z,2.40
2019-05-22T11:56:11.658Z,3.40
2019-05-22T11:58:41.057Z,3.40
2019-05-22T12:01:10.579Z,3.60
2019-05-22T12:03:40.994Z,4.47
2019-05-22T12:06:10.525Z,4.87
2019-05-22T12:08:40.220Z,4.50
2019-05-22T12:11:11.162Z,4.50
2019-05-22T12:13:40.533Z,4.50
2019-05-22T12:16:09.999Z,3.43
2019-05-22T12:18:39.647Z,2.67
2019-05-22T12:21:08.941Z,2.57
2019-05-22T12:23:38.470Z,2.50
2019-05-22T12:26:09.178Z,2.80
2019-05-22T12:28:39.056Z,2.50
2019-05-22T12:31:09.455Z,2.27
2019-05-22T12:33:39.447Z,2.60
2019-05-22T12:36:12.026Z,2.57
2019-05-22T12:38:41.890Z,2.70
2019-05-22T12:41:13.008Z,2.30
2019-05-22T12:43:45.044Z,2.00
2019-05-22T12:46:15.191Z,1.73
2019-05-22T12:48:45.216Z,1.90
2019-05-22T12:51:15.662Z,1.90
2019-05-22T12:53:45.633Z,2.00
2019-05-22T12:56:15.438Z,2.23
2019-05-22T12:58:46.323Z,2.10
2019-05-22T13:01:17.798Z,2.10
2019-05-22T13:03:48.452Z,2.17
2019-05-22T13:06:18.124Z,2.50
2019-05-22T13:08:47.475Z,2.50
2019-05-22T13:11:17.172Z,2.43
2019-05-22T13:13:46.954Z,2.40
2019-05-22T13:16:16.897Z,2.30
2019-05-22T13:18:47.705Z,2.17
2019-05-22T13:21:20.622Z,2.73
2019-05-22T13:23:51.589Z,2.57
2019-05-22T13:26:23.245Z,2.53
2019-05-22T13:28:54.705Z,2.10
2019-05-22T13:31:25.114Z,2.37
2019-05-22T13:33:54.972Z,1.87
2019-05-22T13:36:25.271Z,2.03
2019-05-22T13:38:54.941Z,1.97
2019-05-22T13:41:24.312Z,1.70
2019-05-22T13:43:54.031Z,1.50
2019-05-22T13:46:23.984Z,1.60
2019-05-22T13:48:53.323Z,2.20
2019-05-22T13:51:22.922Z,2.20
2019-05-22T13:53:53.634Z,2.53
2019-05-22T13:56:25.628Z,1.90
2019-05-22T13:58:56.207Z,2.10
2019-05-22T14:01:26.200Z,2.40
2019-05-22T14:03:56.443Z,2.17
2019-05-22T14:06:25.950Z,2.30
2019-05-22T14:08:55.587Z,1.97
2019-05-22T14:11:25.006Z,2.17
2019-05-22T14:13:54.871Z,2.20
2019-05-22T14:16:24.473Z,2.40
2019-05-22T14:18:53.804Z,2.30
2019-05-22T14:21:23.206Z,2.47
2019-05-22T14:23:52.510Z,2.10
2019-05-22T14:26:21.903Z,2.50
2019-05-22T14:28:51.693Z,2.43
2019-05-22T14:31:20.969Z,2.87
2019-05-22T14:33:50.759Z,2.73
2019-05-22T14:36:20.676Z,2.50
2019-05-22T14:38:50.159Z,2.70
2019-05-22T14:41:19.698Z,2.50
2019-05-22T14:43:48.998Z,2.90
2019-05-22T14:46:18.362Z,2.93
2019-05-22T14:48:47.827Z,2.90
2019-05-22T14:51:20.238Z,2.87
2019-05-22T14:53:52.164Z,3.50
2019-05-22T14:56:22.223Z,2.83
2019-05-22T14:58:51.699Z,3.07
2019-05-22T15:01:22.338Z,3.80
2019-05-22T15:03:51.989Z,3.73
2019-05-22T15:06:21.279Z,4.20
2019-05-22T15:08:50.507Z,3.83
2019-05-22T15:11:20.729Z,4.70
2019-05-22T15:13:50.543Z,7.83
2019-05-22T15:16:20.531Z,10.63
2019-05-22T15:18:49.870Z,10.73
2019-05-22T15:21:19.649Z,13.83
2019-05-22T15:23:51.063Z,13.07
2019-05-22T15:26:20.962Z,8.93
2019-05-22T15:28:50.614Z,7.27
2019-05-22T15:31:20.370Z,6.00
2019-05-22T15:33:50.437Z,4.63
2019-05-22T15:36:22.783Z,3.90
2019-05-22T15:38:53.377Z,3.80
2019-05-22T15:41:23.786Z,3.70
2019-05-22T15:43:54.562Z,4.30
2019-05-22T15:46:26.105Z,3.63
2019-05-22T15:48:56.152Z,4.63
2019-05-22T15:51:30.043Z,4.13
2019-05-22T15:54:02.245Z,3.90
2019-05-22T15:56:33.860Z,5.07
2019-05-22T15:59:05.937Z,5.23
2019-05-22T16:01:36.812Z,5.57
2019-05-22T16:04:09.056Z,5.50
2019-05-22T16:06:39.385Z,5.13
2019-05-22T16:09:13.206Z,5.50
2019-05-22T16:11:44.090Z,5.73
2019-05-22T16:14:14.839Z,5.77
2019-05-22T16:16:47.015Z,6.17
2019-05-22T16:19:17.065Z,6.50
2019-05-22T16:21:48.522Z,6.73
2019-05-22T16:24:19.270Z,6.53
2019-05-22T16:26:49.718Z,7.50
2019-05-22T16:29:21.858Z,6.13
2019-05-22T16:31:52.391Z,6.07
2019-05-22T16:34:22.904Z,5.63
2019-05-22T16:36:54.258Z,6.07
2019-05-22T16:39:24.867Z,4.80
2019-05-22T16:41:54.917Z,4.63
2019-05-22T16:44:24.858Z,4.30
2019-05-22T16:46:54.641Z,4.60
2019-05-22T16:49:24.421Z,3.97
2019-05-22T16:51:55.195Z,3.73
2019-05-22T16:54:25.380Z,3.73
2019-05-22T16:56:55.596Z,3.27
2019-05-22T16:59:24.847Z,3.27
2019-05-22T17:01:59.612Z,2.77
2019-05-22T17:04:26.067Z,2.37
2019-05-22T17:06:56.038Z,1.80
2019-05-22T17:09:26.346Z,2.27
2019-05-22T17:11:56.733Z,2.47
2019-05-22T17:14:27.805Z,2.20
2019-05-22T17:16:57.510Z,2.10
2019-05-22T17:19:28.057Z,2.03
2019-05-22T17:21:58.014Z,2.20
2019-05-22T17:24:27.881Z,2.30
2019-05-22T17:26:57.320Z,3.00
2019-05-22T17:29:27.204Z,3.07
2019-05-22T17:31:56.693Z,3.27
2019-05-22T17:34:32.615Z,3.23
2019-05-22T17:37:06.182Z,3.40
2019-05-22T17:39:36.653Z,3.50
2019-05-22T17:42:08.937Z,3.20
2019-05-22T17:44:41.422Z,3.50
2019-05-22T17:47:11.823Z,3.93
2019-05-22T17:49:41.625Z,3.50
2019-05-22T17:52:12.757Z,3.60
2019-05-22T17:54:42.897Z,3.83
2019-05-22T17:57:13.779Z,3.90
2019-05-22T17:59:43.382Z,3.93
2019-05-22T18:02:14.290Z,3.73
2019-05-22T18:04:43.849Z,3.50
2019-05-22T18:07:13.513Z,3.77
2019-05-22T18:09:43.198Z,4.60
2019-05-22T18:12:13.269Z,6.20
2019-05-22T18:14:42.582Z,5.37
2019-05-22T18:17:12.174Z,5.07
2019-05-22T18:19:41.552Z,4.80
2019-05-22T18:22:12.482Z,4.60
2019-05-22T18:24:42.220Z,5.23
2019-05-22T18:27:11.578Z,4.93
2019-05-22T18:29:40.895Z,4.87
2019-05-22T18:32:12.131Z,5.00
2019-05-22T18:34:41.622Z,4.70
2019-05-22T18:37:10.941Z,4.60
2019-05-22T18:39:40.566Z,5.00
2019-05-22T18:42:10.400Z,4.80
2019-05-22T18:44:39.770Z,4.53
2019-05-22T18:47:10.103Z,4.90
2019-05-22T18:49:39.419Z,4.80
2019-05-22T18:52:09.494Z,4.63
2019-05-22T18:54:38.790Z,4.90
2019-05-22T18:57:08.072Z,5.43
2019-05-22T18:59:37.462Z,5.33
2019-05-22T19:02:07.037Z,4.70
2019-05-22T19:04:36.856Z,4.97
2019-05-22T19:07:06.349Z,5.13
2019-05-22T19:09:35.609Z,4.53
2019-05-22T19:12:05.506Z,4.37
2019-05-22T19:14:34.962Z,4.83
2019-05-22T19:17:04.878Z,5.70
2019-05-22T19:19:34.485Z,4.80
2019-05-22T19:22:03.753Z,4.53
2019-05-22T19:24:33.149Z,4.47
2019-05-22T19:27:02.458Z,4.60
2019-05-22T19:29:31.872Z,4.40
2019-05-22T19:32:01.224Z,4.83
2019-05-22T19:34:30.835Z,5.40
2019-05-22T19:37:00.326Z,5.00
2019-05-22T19:39:30.218Z,5.20
2019-05-22T19:42:04.095Z,4.87
2019-05-22T19:44:30.907Z,4.60
2019-05-22T19:47:00.749Z,4.77
2019-05-22T19:49:31.147Z,4.97
2019-05-22T19:52:01.048Z,4.90
2019-05-22T19:54:30.368Z,4.83
2019-05-22T19:56:59.861Z,4.80
2019-05-22T19:59:30.318Z,4.50
2019-05-22T20:02:00.167Z,4.70
2019-05-22T20:04:29.593Z,4.40
2019-05-22T20:06:59.094Z,4.37
2019-05-22T20:09:28.653Z,5.00
2019-05-22T20:11:57.951Z,4.03
2019-05-22T20:14:30.495Z,4.30
2019-05-22T20:16:58.727Z,4.43
2019-05-22T20:19:28.318Z,4.30
2019-05-22T20:22:00.298Z,4.23
2019-05-22T20:24:29.240Z,4.33
2019-05-22T20:26:58.569Z,4.10
2019-05-22T20:29:27.927Z,4.03
2019-05-22T20:31:57.385Z,4.00
2019-05-22T20:34:26.677Z,3.77
2019-05-22T20:36:57.148Z,3.53
2019-05-22T20:39:29.742Z,3.40
2019-05-22T20:41:59.687Z,3.60
2019-05-22T20:44:29.534Z,3.63
2019-05-22T20:46:58.983Z,3.57
2019-05-22T20:49:28.951Z,3.87
2019-05-22T20:51:58.135Z,4.03
2019-05-22T20:54:28.430Z,3.73
2019-05-22T20:56:59.269Z,3.07
2019-05-22T20:59:30.026Z,3.10
2019-05-22T21:01:59.585Z,3.20
2019-05-22T21:04:29.427Z,3.13
2019-05-22T21:07:02.208Z,3.10
2019-05-22T21:09:32.454Z,2.80
2019-05-22T21:12:03.239Z,2.83
2019-05-22T21:14:32.759Z,3.17
2019-05-22T21:17:02.345Z,2.50
2019-05-22T21:19:32.301Z,2.80
2019-05-22T21:22:02.766Z,2.90
2019-05-22T21:24:31.993Z,2.60
2019-05-22T21:27:01.550Z,2.63
2019-05-22T21:29:32.046Z,2.60
2019-05-22T21:32:01.517Z,2.70
2019-05-22T21:34:31.445Z,2.50
2019-05-22T21:37:01.680Z,2.80
2019-05-22T21:39:31.510Z,2.50
2019-05-22T21:42:00.904Z,2.57
2019-05-22T21:44:30.451Z,2.50
2019-05-22T21:47:00.255Z,2.23
2019-05-22T21:49:30.370Z,2.23
2019-05-22T21:52:00.422Z,2.00
2019-05-22T21:54:30.082Z,2.77
2019-05-22T21:57:00.845Z,2.70
2019-05-22T21:59:30.514Z,2.80
2019-05-22T22:02:09.385Z,2.80
2019-05-22T22:04:39.654Z,2.67
2019-05-22T22:07:09.457Z,2.37
2019-05-22T22:09:40.030Z,2.43
2019-05-22T22:12:10.574Z,2.57
2019-05-22T22:14:39.944Z,2.67
2019-05-22T22:17:10.088Z,2.60
2019-05-22T22:19:40.432Z,2.87
2019-05-22T22:22:14.098Z,2.67
2019-05-22T22:24:43.645Z,2.77
2019-05-22T22:27:13.985Z,2.90
2019-05-22T22:29:43.237Z,3.13
2019-05-22T22:32:13.170Z,3.10
2019-05-22T22:34:47.336Z,3.37
2019-05-22T22:37:17.418Z,2.90
2019-05-22T22:39:51.945Z,3.20
2019-05-22T22:42:26.645Z,3.00
2019-05-22T22:44:57.374Z,3.17
2019-05-22T22:47:46.959Z,2.93
2019-05-22T22:50:19.356Z,2.90
2019-05-22T22:52:49.333Z,2.73
2019-05-22T22:55:19.176Z,2.80
2019-05-22T22:57:49.697Z,3.07
2019-05-22T23:00:25.308Z,2.70
2019-05-22T23:02:55.734Z,3.10
2019-05-22T23:05:25.184Z,3.30
2019-05-22T23:07:55.641Z,2.90
2019-05-22T23:10:25.730Z,3.17
2019-05-22T23:12:55.722Z,3.40
2019-05-22T23:15:26.447Z,2.97
2019-05-22T23:17:56.618Z,2.97
2019-05-22T23:20:24.450Z,2.90
2019-05-22T23:22:52.307Z,2.63
2019-05-22T23:25:44.810Z,2.53
2019-05-22T23:28:14.070Z,2.67
2019-05-22T23:30:43.738Z,2.40
2019-05-22T23:33:13.018Z,2.40
2019-05-22T23:35:43.091Z,2.17
2019-05-22T23:38:14.647Z,2.30
2019-05-22T23:40:46.031Z,2.23
2019-05-22T23:43:16.398Z,2.40
2019-05-22T23:45:46.465Z,2.70
2019-05-22T23:48:17.131Z,2.80
2019-05-22T23:50:49.381Z,2.50
2019-05-22T23:53:20.821Z,3.47
2019-05-22T23:55:50.153Z,3.40
2019-05-22T23:58:22.819Z,3.40
